Time;durP1;ratioP1;P1;durP2;ratioP2;P2;SDS_P1;SDS_P2;PMS_P1;PMS_P2;Temp;Humidity;BMP_temperature;BMP_pressure;BME280_temperature;BME280_humidity;BME280_pressure;Samples;Min_cycle;Max_cycle;Signal;HPM_P1;HPM_P2
2023/09/14 00:00:22;;;;;;;10.98;6.72;;;14.80;89.00;;;;;;4969090;28;20124;-78
2023/09/14 00:02:48;;;;;;;12.68;7.45;;;14.80;89.10;;;;;;4962240;28;20401;-78
2023/09/14 00:05:14;;;;;;;11.07;6.53;;;14.80;89.20;;;;;;4959452;28;20072;-73
2023/09/14 00:07:40;;;;;;;11.63;6.53;;;14.80;89.30;;;;;;4969515;28;20042;-73
2023/09/14 00:10:06;;;;;;;10.35;7.50;;;14.70;89.40;;;;;;5046990;28;20033;-75
2023/09/14 00:12:32;;;;;;;9.50;6.32;;;14.80;89.30;;;;;;5007935;28;20035;-72
2023/09/14 00:14:58;;;;;;;11.70;6.60;;;14.70;89.30;;;;;;4984468;28;20065;-75
2023/09/14 00:17:23;;;;;;;9.88;6.35;;;14.70;89.40;;;;;;4963679;28;20031;-72
2023/09/14 00:19:49;;;;;;;9.60;6.63;;;14.70;89.40;;;;;;4966906;28;20062;-75
2023/09/14 00:22:15;;;;;;;10.35;5.85;;;14.70;89.10;;;;;;4986402;28;20057;-73
2023/09/14 00:24:40;;;;;;;11.55;6.80;;;14.70;89.00;;;;;;4962277;28;20043;-73
2023/09/14 00:27:06;;;;;;;10.82;6.75;;;14.60;89.10;;;;;;4979373;28;20039;-75
2023/09/14 00:29:32;;;;;;;11.07;6.53;;;14.60;89.20;;;;;;4980032;28;20089;-75
2023/09/14 00:31:57;;;;;;;12.85;6.78;;;14.60;89.30;;;;;;4962864;28;20031;-76
2023/09/14 00:34:23;;;;;;;11.88;6.57;;;14.60;89.10;;;;;;4961124;28;20039;-81
2023/09/14 00:36:49;;;;;;;11.80;6.50;;;14.60;88.90;;;;;;4963926;28;20031;-73
2023/09/14 00:39:14;;;;;;;8.88;5.75;;;14.60;88.70;;;;;;4948892;28;20035;-75
2023/09/14 00:41:40;;;;;;;11.20;6.90;;;14.60;88.70;;;;;;4944056;28;20031;-73
2023/09/14 00:44:06;;;;;;;10.50;6.32;;;14.60;88.70;;;;;;4952096;28;20030;-75
2023/09/14 00:46:32;;;;;;;12.88;7.38;;;14.60;88.80;;;;;;4939774;28;20027;-77
2023/09/14 00:49:00;;;;;;;14.38;7.00;;;14.50;89.00;;;;;;4941589;28;20032;-75
2023/09/14 00:51:27;;;;;;;10.93;6.60;;;14.40;89.20;;;;;;4943383;28;20409;-73
2023/09/14 00:53:54;;;;;;;11.70;6.93;;;14.40;89.30;;;;;;4963946;28;20039;-81
2023/09/14 00:56:20;;;;;;;11.55;6.38;;;14.50;89.30;;;;;;4962404;28;20042;-72
2023/09/14 00:58:47;;;;;;;11.98;7.47;;;14.40;89.20;;;;;;4958415;28;20035;-73
2023/09/14 01:01:16;;;;;;;10.55;6.47;;;14.40;89.40;;;;;;4964028;28;20388;-77
2023/09/14 01:03:42;;;;;;;10.68;6.47;;;14.40;89.50;;;;;;4967426;28;20169;-78
2023/09/14 01:06:08;;;;;;;13.20;6.63;;;14.40;89.40;;;;;;4959055;28;20105;-74
2023/09/14 01:08:34;;;;;;;10.20;6.70;;;14.40;89.40;;;;;;4960535;28;20057;-81
2023/09/14 01:11:01;;;;;;;11.93;7.40;;;14.40;89.40;;;;;;4961174;28;20784;-72
2023/09/14 01:13:54;;;;;;;9.95;6.68;;;14.30;89.50;;;;;;4959592;28;20046;-74
2023/09/14 01:16:51;;;;;;;12.40;6.55;;;14.30;89.40;;;;;;4959263;28;20034;-73
2023/09/14 01:19:20;;;;;;;12.55;7.05;;;14.30;89.30;;;;;;4960344;28;20093;-72
2023/09/14 01:22:01;;;;;;;11.02;6.50;;;14.30;89.30;;;;;;4961993;28;20031;-77
2023/09/14 01:24:46;;;;;;;11.18;7.20;;;14.30;89.40;;;;;;4960109;27;20043;-75
2023/09/14 01:27:13;;;;;;;10.18;6.90;;;14.30;89.20;;;;;;4961535;28;20084;-79
2023/09/14 01:29:40;;;;;;;11.98;7.00;;;14.20;89.10;;;;;;4939630;28;20063;-79
2023/09/14 01:32:06;;;;;;;13.43;7.25;;;14.20;89.20;;;;;;4937495;28;21266;-74
2023/09/14 01:34:32;;;;;;;10.93;7.35;;;14.20;89.20;;;;;;4958623;28;20034;-73
2023/09/14 01:37:03;;;;;;;10.10;6.97;;;14.10;89.50;;;;;;4959909;28;20030;-82
2023/09/14 01:39:31;;;;;;;11.30;8.15;;;14.10;89.60;;;;;;4960628;28;20045;-76
2023/09/14 01:41:57;;;;;;;11.07;7.07;;;14.10;89.60;;;;;;4961738;28;20482;-72
2023/09/14 01:44:27;;;;;;;9.52;6.95;;;14.00;89.80;;;;;;4959800;28;20560;-79
2023/09/14 01:46:54;;;;;;;11.98;7.70;;;14.00;90.00;;;;;;4970529;28;20039;-79
2023/09/14 01:49:19;;;;;;;10.43;7.53;;;14.00;90.10;;;;;;4937633;28;20066;-79
2023/09/14 01:51:45;;;;;;;12.00;7.72;;;14.00;90.10;;;;;;4942817;28;20035;-76
2023/09/14 01:54:11;;;;;;;10.30;6.65;;;14.00;90.10;;;;;;4942085;28;20049;-74
2023/09/14 01:56:37;;;;;;;11.60;7.72;;;14.00;90.00;;;;;;4943503;28;20742;-74
2023/09/14 01:59:03;;;;;;;9.68;7.35;;;14.00;90.00;;;;;;4941890;28;20047;-80
2023/09/14 02:01:29;;;;;;;11.60;7.10;;;14.00;90.00;;;;;;4946820;28;20455;-72
2023/09/14 02:03:54;;;;;;;12.18;7.15;;;14.00;90.10;;;;;;4949462;28;20124;-75
2023/09/14 02:06:20;;;;;;;12.45;7.72;;;13.90;90.00;;;;;;4945989;28;20517;-77
2023/09/14 02:08:46;;;;;;;14.27;7.45;;;13.90;90.10;;;;;;4943648;28;20050;-72
2023/09/14 02:11:13;;;;;;;11.82;7.10;;;13.90;90.10;;;;;;4945919;28;20493;-78
2023/09/14 02:13:42;;;;;;;11.95;6.53;;;13.90;90.00;;;;;;4946912;28;20039;-72
2023/09/14 02:16:09;;;;;;;11.02;6.80;;;13.90;89.90;;;;;;4937478;28;20146;-83
2023/09/14 02:18:35;;;;;;;10.75;6.93;;;13.80;89.80;;;;;;4950195;28;20095;-76
2023/09/14 02:21:00;;;;;;;10.60;6.90;;;13.80;89.90;;;;;;4962466;28;20658;-73
2023/09/14 02:23:26;;;;;;;11.68;6.88;;;13.70;90.00;;;;;;4962332;28;20031;-73
2023/09/14 02:25:52;;;;;;;11.85;6.95;;;13.70;90.00;;;;;;4962251;28;20058;-80
2023/09/14 02:28:21;;;;;;;11.30;6.95;;;13.80;90.10;;;;;;4962690;28;20049;-74
2023/09/14 02:30:47;;;;;;;9.93;6.47;;;13.70;90.00;;;;;;4960393;28;20031;-73
2023/09/14 02:33:13;;;;;;;9.73;6.35;;;13.70;89.80;;;;;;4949161;28;20035;-80
2023/09/14 02:35:40;;;;;;;10.05;6.45;;;13.70;89.60;;;;;;4942363;28;20038;-72
2023/09/14 02:38:06;;;;;;;12.73;7.03;;;13.60;89.70;;;;;;4944231;28;20126;-74
2023/09/14 02:40:32;;;;;;;10.52;7.10;;;13.60;89.70;;;;;;4941491;28;20493;-73
2023/09/14 02:42:58;;;;;;;11.10;6.65;;;13.60;89.80;;;;;;4942901;28;20043;-73
2023/09/14 02:45:24;;;;;;;10.88;6.53;;;13.60;89.90;;;;;;4964210;28;20026;-81
2023/09/14 02:47:49;;;;;;;10.75;6.40;;;13.60;89.90;;;;;;4957751;28;20149;-76
2023/09/14 02:50:15;;;;;;;12.20;6.40;;;13.60;89.80;;;;;;4955677;28;20043;-76
2023/09/14 02:52:41;;;;;;;12.75;7.03;;;13.60;89.90;;;;;;4954473;28;20035;-81
2023/09/14 02:55:07;;;;;;;9.27;6.25;;;13.60;89.90;;;;;;4942205;28;20036;-75
2023/09/14 02:57:33;;;;;;;10.40;6.53;;;13.60;89.80;;;;;;4946598;28;20081;-74
2023/09/14 02:59:58;;;;;;;10.90;7.13;;;13.60;89.90;;;;;;4942074;28;20420;-77
2023/09/14 03:02:24;;;;;;;12.40;7.20;;;13.60;89.90;;;;;;4936981;28;20039;-74
2023/09/14 03:04:50;;;;;;;17.23;7.85;;;13.60;90.00;;;;;;4937766;28;20081;-81
2023/09/14 03:07:16;;;;;;;11.63;7.20;;;13.60;90.00;;;;;;4946322;28;21021;-74
2023/09/14 03:09:42;;;;;;;10.88;7.55;;;13.60;89.80;;;;;;4959865;28;20096;-73
2023/09/14 03:12:08;;;;;;;11.55;7.00;;;13.60;89.70;;;;;;4957013;28;20049;-81
2023/09/14 03:14:34;;;;;;;12.45;8.10;;;13.50;89.70;;;;;;4971640;28;20067;-73
2023/09/14 03:17:00;;;;;;;11.45;7.50;;;13.50;89.70;;;;;;4961099;28;20089;-73
2023/09/14 03:19:26;;;;;;;13.93;8.63;;;13.50;89.90;;;;;;5023541;28;20108;-76
2023/09/14 03:21:52;;;;;;;13.40;8.57;;;13.40;90.00;;;;;;5019660;28;20746;-80
2023/09/14 03:24:17;;;;;;;16.75;9.38;;;13.40;90.30;;;;;;4937673;28;20560;-81
2023/09/14 03:26:43;;;;;;;13.85;8.30;;;13.40;90.50;;;;;;4941172;28;20039;-74
2023/09/14 03:29:09;;;;;;;14.38;8.30;;;13.40;90.70;;;;;;4947638;28;20402;-75
2023/09/14 03:31:35;;;;;;;12.10;8.00;;;13.40;90.80;;;;;;4958513;28;20129;-78
2023/09/14 03:34:01;;;;;;;13.77;9.05;;;13.30;90.90;;;;;;4953743;28;20173;-79
2023/09/14 03:36:27;;;;;;;13.00;8.38;;;13.30;90.80;;;;;;4958306;28;20122;-74
2023/09/14 03:38:53;;;;;;;11.68;8.00;;;13.30;90.90;;;;;;4960401;28;20039;-74
2023/09/14 03:41:19;;;;;;;12.00;8.00;;;13.30;91.00;;;;;;4958195;28;20027;-76
2023/09/14 03:43:44;;;;;;;12.35;8.35;;;13.30;91.00;;;;;;4952471;28;20038;-80
2023/09/14 03:46:12;;;;;;;14.05;8.43;;;13.30;91.00;;;;;;4956160;28;20042;-74
2023/09/14 03:48:38;;;;;;;14.07;8.65;;;13.20;91.00;;;;;;4943772;28;20057;-73
2023/09/14 03:51:04;;;;;;;10.70;7.50;;;13.20;91.00;;;;;;4939088;28;20040;-76
2023/09/14 03:53:30;;;;;;;12.07;7.90;;;13.20;91.10;;;;;;4937342;28;20042;-72
2023/09/14 03:56:00;;;;;;;12.05;8.27;;;13.20;91.30;;;;;;4939447;28;20436;-72
2023/09/14 03:58:26;;;;;;;13.30;8.98;;;13.30;91.40;;;;;;4929565;28;20046;-80
2023/09/14 04:00:55;;;;;;;13.50;8.20;;;13.30;91.40;;;;;;4936972;28;20034;-73
2023/09/14 04:03:21;;;;;;;10.93;7.93;;;13.20;91.40;;;;;;4937732;28;20043;-73
2023/09/14 04:05:47;;;;;;;13.23;9.25;;;13.20;91.40;;;;;;4938377;28;20114;-77
2023/09/14 04:08:12;;;;;;;12.15;8.82;;;13.20;91.40;;;;;;4931548;28;20132;-79
2023/09/14 04:10:39;;;;;;;12.68;8.95;;;13.20;91.20;;;;;;4943280;28;20543;-74
2023/09/14 04:13:32;;;;;;;15.27;8.65;;;13.20;91.00;;;;;;4936921;28;20230;-75
2023/09/14 04:16:03;;;;;;;14.90;9.32;;;13.10;91.10;;;;;;4937603;28;20093;-73
2023/09/14 04:18:33;;;;;;;12.25;8.90;;;13.10;91.20;;;;;;4935493;28;20035;-80
2023/09/14 04:20:59;;;;;;;13.85;9.05;;;13.10;91.30;;;;;;4941154;28;20038;-73
2023/09/14 04:23:24;;;;;;;15.05;8.27;;;13.10;91.50;;;;;;4940335;28;20048;-72
2023/09/14 04:25:51;;;;;;;12.50;9.00;;;13.10;91.50;;;;;;4951850;28;20027;-80
2023/09/14 04:28:18;;;;;;;13.70;9.07;;;13.10;91.40;;;;;;4949989;28;20047;-75
2023/09/14 04:30:46;;;;;;;13.15;9.13;;;13.10;91.40;;;;;;4954658;28;20035;-77
2023/09/14 04:33:13;;;;;;;14.07;9.13;;;13.00;91.40;;;;;;4983946;28;20037;-80
2023/09/14 04:35:39;;;;;;;14.27;9.13;;;13.10;91.30;;;;;;5045978;28;20104;-73
2023/09/14 04:38:08;;;;;;;14.38;9.13;;;13.10;91.30;;;;;;4987499;28;20039;-73
2023/09/14 04:40:38;;;;;;;13.38;8.70;;;13.10;91.30;;;;;;4962218;28;20088;-77
2023/09/14 04:43:05;;;;;;;14.98;10.30;;;13.00;91.30;;;;;;4963040;28;20461;-76
2023/09/14 04:45:31;;;;;;;14.27;9.70;;;13.00;91.40;;;;;;4965066;28;20062;-73
2023/09/14 04:47:58;;;;;;;13.75;9.02;;;12.90;91.40;;;;;;4975962;28;20060;-75
2023/09/14 04:50:23;;;;;;;15.88;10.48;;;12.80;91.70;;;;;;5051545;28;20055;-77
2023/09/14 04:52:49;;;;;;;16.15;10.93;;;12.80;91.70;;;;;;5006736;28;20038;-76
2023/09/14 04:55:15;;;;;;;17.33;10.27;;;12.80;91.90;;;;;;4967318;28;20037;-78
2023/09/14 04:57:40;;;;;;;13.55;10.15;;;12.80;92.10;;;;;;4965932;28;20063;-82
2023/09/14 05:00:09;;;;;;;14.15;10.25;;;12.80;92.20;;;;;;4958701;28;20150;-77
2023/09/14 05:02:37;;;;;;;16.92;11.30;;;12.80;92.40;;;;;;4969315;28;20070;-77
2023/09/14 05:05:03;;;;;;;17.42;11.65;;;12.80;92.50;;;;;;4965936;28;20035;-76
2023/09/14 05:07:29;;;;;;;17.63;11.23;;;12.90;92.60;;;;;;4956553;28;20477;-75
2023/09/14 05:09:55;;;;;;;14.57;10.50;;;12.90;92.70;;;;;;4942212;28;20050;-75
2023/09/14 05:12:21;;;;;;;17.52;11.32;;;13.00;92.80;;;;;;4949605;28;20073;-74
2023/09/14 05:14:47;;;;;;;17.00;11.75;;;13.00;92.90;;;;;;4940534;28;20093;-75
2023/09/14 05:17:12;;;;;;;15.93;12.05;;;13.00;92.70;;;;;;4939239;28;20054;-73
2023/09/14 05:19:41;;;;;;;15.63;11.77;;;13.00;92.80;;;;;;4964039;28;20074;-74
2023/09/14 05:22:07;;;;;;;16.27;11.38;;;13.10;92.80;;;;;;4983828;28;20491;-76
2023/09/14 05:24:32;;;;;;;16.40;12.43;;;13.00;92.70;;;;;;5036345;28;20032;-75
2023/09/14 05:26:59;;;;;;;15.93;12.43;;;13.00;92.50;;;;;;5028022;28;20735;-75
2023/09/14 05:29:25;;;;;;;16.35;11.52;;;13.10;92.60;;;;;;4956870;28;20047;-75
2023/09/14 05:31:51;;;;;;;15.55;11.43;;;13.10;92.50;;;;;;4962653;28;20037;-73
2023/09/14 05:34:16;;;;;;;17.90;11.75;;;13.10;92.50;;;;;;4936822;28;20039;-78
2023/09/14 05:36:42;;;;;;;18.45;12.38;;;13.10;92.30;;;;;;4940578;28;20094;-74
2023/09/14 05:39:08;;;;;;;15.27;10.80;;;13.00;92.00;;;;;;4944812;28;20579;-75
2023/09/14 05:41:34;;;;;;;16.85;11.07;;;13.00;92.30;;;;;;4938050;28;20027;-75
2023/09/14 05:44:00;;;;;;;20.23;11.27;;;13.10;92.20;;;;;;4938338;28;20107;-73
2023/09/14 05:46:26;;;;;;;21.40;11.80;;;13.10;91.90;;;;;;4940974;28;20127;-74
2023/09/14 05:48:52;;;;;;;14.18;10.90;;;13.00;91.90;;;;;;4949475;28;20473;-79
2023/09/14 05:51:17;;;;;;;19.25;11.75;;;13.00;92.20;;;;;;4946380;28;20753;-78
2023/09/14 05:53:43;;;;;;;20.00;12.10;;;13.10;92.20;;;;;;4944323;28;20065;-76
2023/09/14 05:56:09;;;;;;;18.10;11.65;;;13.20;92.10;;;;;;4956709;28;20031;-77
2023/09/14 05:58:34;;;;;;;18.00;12.18;;;13.20;91.90;;;;;;4949938;28;20058;-75
2023/09/14 06:01:00;;;;;;;17.75;11.10;;;13.20;91.90;;;;;;4942577;28;20697;-79
2023/09/14 06:03:26;;;;;;;14.63;10.75;;;13.20;92.00;;;;;;4946277;28;20063;-73
2023/09/14 06:05:52;;;;;;;19.92;12.15;;;13.30;92.10;;;;;;4940535;28;20509;-77
2023/09/14 06:08:17;;;;;;;16.17;10.95;;;13.40;92.20;;;;;;4949733;28;20050;-75
2023/09/14 06:10:43;;;;;;;18.20;12.07;;;13.50;92.20;;;;;;4946534;28;20054;-73
2023/09/14 06:13:09;;;;;;;16.10;11.93;;;13.60;92.20;;;;;;4941445;28;20053;-71
2023/09/14 06:15:35;;;;;;;15.82;11.48;;;13.60;92.00;;;;;;4944267;28;20385;-73
2023/09/14 06:18:00;;;;;;;19.20;12.48;;;13.70;91.90;;;;;;4962721;28;20073;-73
2023/09/14 06:20:26;;;;;;;18.10;12.30;;;13.80;91.60;;;;;;5039714;28;20139;-75
2023/09/14 06:22:52;;;;;;;16.25;11.52;;;13.80;91.50;;;;;;4984240;28;20725;-73
2023/09/14 06:25:17;;;;;;;20.20;11.82;;;13.90;91.50;;;;;;4950668;28;20028;-74
2023/09/14 06:27:44;;;;;;;17.42;12.68;;;14.00;91.10;;;;;;4942083;28;20047;-73
2023/09/14 06:30:10;;;;;;;18.02;12.02;;;13.90;90.60;;;;;;4943485;28;20042;-73
2023/09/14 06:32:35;;;;;;;18.35;12.85;;;13.90;90.60;;;;;;4936563;28;20058;-73
2023/09/14 06:35:01;;;;;;;16.85;12.77;;;13.90;90.60;;;;;;4932339;28;20115;-73
2023/09/14 06:37:27;;;;;;;18.48;13.18;;;13.90;90.60;;;;;;4933163;28;20032;-73
2023/09/14 06:39:53;;;;;;;20.77;13.20;;;14.00;90.70;;;;;;4943740;28;20138;-74
2023/09/14 06:42:19;;;;;;;20.17;12.90;;;14.10;90.50;;;;;;4938146;28;20478;-73
2023/09/14 06:44:44;;;;;;;18.65;14.00;;;14.10;90.60;;;;;;4958990;28;20047;-73
2023/09/14 06:47:10;;;;;;;18.15;13.57;;;14.20;90.60;;;;;;4938850;28;20071;-73
2023/09/14 06:49:36;;;;;;;19.45;14.02;;;14.40;90.60;;;;;;4933587;28;20532;-73
2023/09/14 06:52:03;;;;;;;17.40;12.82;;;14.40;90.40;;;;;;4945386;28;20042;-74
2023/09/14 06:54:28;;;;;;;19.60;14.20;;;14.60;90.60;;;;;;4947926;28;20062;-73
2023/09/14 06:56:54;;;;;;;17.00;12.82;;;14.60;90.10;;;;;;4941983;28;20058;-72
2023/09/14 06:59:19;;;;;;;22.38;14.23;;;14.70;90.30;;;;;;4943849;28;20046;-74
2023/09/14 07:01:45;;;;;;;18.67;13.23;;;15.00;89.90;;;;;;4941537;28;20139;-73
2023/09/14 07:04:11;;;;;;;18.15;13.48;;;15.10;89.60;;;;;;5050152;28;20038;-72
2023/09/14 07:06:36;;;;;;;21.27;13.73;;;15.10;88.60;;;;;;4963587;28;20050;-73
2023/09/14 07:09:04;;;;;;;19.48;13.07;;;15.30;88.80;;;;;;4960927;28;20043;-74
2023/09/14 07:11:29;;;;;;;20.98;14.02;;;15.40;88.50;;;;;;4971717;28;20039;-75
2023/09/14 07:13:55;;;;;;;20.92;13.85;;;15.40;87.80;;;;;;4947518;28;20037;-73
2023/09/14 07:16:22;;;;;;;20.10;13.88;;;15.40;88.20;;;;;;4942343;28;20027;-73
2023/09/14 07:18:47;;;;;;;19.23;13.07;;;15.40;88.20;;;;;;4938315;28;20035;-75
2023/09/14 07:21:13;;;;;;;20.55;14.05;;;15.60;88.50;;;;;;4934930;28;20035;-73
2023/09/14 07:23:39;;;;;;;17.45;12.50;;;15.70;88.20;;;;;;4938781;28;20039;-73
2023/09/14 07:26:07;;;;;;;18.83;13.13;;;16.00;87.90;;;;;;4941386;28;20493;-74
2023/09/14 07:28:33;;;;;;;20.10;13.85;;;16.00;87.10;;;;;;4948066;28;20094;-73
2023/09/14 07:31:03;;;;;;;24.52;13.52;;;16.10;87.30;;;;;;4983340;28;20027;-73
2023/09/14 07:33:29;;;;;;;18.00;13.73;;;16.30;87.10;;;;;;4955804;28;20579;-75
2023/09/14 07:35:55;;;;;;;21.95;12.77;;;16.50;87.30;;;;;;4958240;28;20023;-73
2023/09/14 07:38:21;;;;;;;20.52;13.45;;;16.70;86.60;;;;;;4957660;28;20049;-72
2023/09/14 07:40:48;;;;;;;17.85;12.18;;;16.90;86.60;;;;;;4959295;28;20057;-73
2023/09/14 07:43:13;;;;;;;16.92;12.30;;;17.10;86.30;;;;;;4944886;28;20043;-74
2023/09/14 07:45:39;;;;;;;19.95;13.57;;;17.40;85.70;;;;;;4937381;28;20034;-75
2023/09/14 07:48:06;;;;;;;18.00;13.23;;;17.60;84.60;;;;;;4933445;28;20035;-73
2023/09/14 07:50:39;;;;;;;19.20;13.43;;;18.00;84.30;;;;;;4931623;28;20110;-74
2023/09/14 07:53:09;;;;;;;18.75;12.60;;;18.20;83.80;;;;;;4945228;28;20568;-72
2023/09/14 07:55:35;;;;;;;18.48;12.55;;;18.30;83.10;;;;;;4957719;28;20039;-73
2023/09/14 07:58:01;;;;;;;18.75;13.43;;;18.50;82.70;;;;;;4950781;28;20039;-74
2023/09/14 08:00:27;;;;;;;17.20;11.30;;;18.60;82.30;;;;;;5042112;28;20044;-74
2023/09/14 08:02:53;;;;;;;17.30;12.52;;;18.80;81.50;;;;;;4990999;28;20039;-74
2023/09/14 08:05:19;;;;;;;16.25;12.02;;;18.90;81.50;;;;;;4975029;28;20496;-74
2023/09/14 08:07:45;;;;;;;17.75;12.23;;;19.10;81.40;;;;;;4966288;28;20066;-73
2023/09/14 08:10:11;;;;;;;15.38;11.80;;;19.10;81.20;;;;;;4964032;28;20045;-72
2023/09/14 08:12:37;;;;;;;17.70;11.35;;;19.30;81.10;;;;;;4960535;28;20099;-72
2023/09/14 08:15:06;;;;;;;17.05;11.68;;;19.40;81.40;;;;;;4962871;28;20477;-73
2023/09/14 08:17:32;;;;;;;16.35;10.60;;;19.50;80.40;;;;;;4959640;28;20145;-73
2023/09/14 08:19:58;;;;;;;14.23;10.73;;;19.60;80.40;;;;;;4944186;28;20032;-73
2023/09/14 08:22:25;;;;;;;17.40;11.57;;;19.60;80.40;;;;;;4948664;28;20039;-74
2023/09/14 08:24:51;;;;;;;17.88;10.98;;;19.70;80.40;;;;;;4950728;28;20089;-74
2023/09/14 08:27:17;;;;;;;16.95;11.45;;;20.00;79.80;;;;;;4948601;28;20042;-72
2023/09/14 08:29:44;;;;;;;13.63;10.25;;;20.10;79.10;;;;;;4961274;28;20039;-73
2023/09/14 08:32:13;;;;;;;14.32;10.40;;;20.20;78.50;;;;;;4956384;28;20058;-72
2023/09/14 08:34:39;;;;;;;15.15;11.50;;;20.50;77.80;;;;;;4941848;28;20031;-73
2023/09/14 08:37:10;;;;;;;19.38;10.73;;;20.60;76.00;;;;;;4944375;28;20885;-72
2023/09/14 08:39:37;;;;;;;14.35;9.73;;;20.60;75.90;;;;;;4941203;28;20031;-73
2023/09/14 08:42:03;;;;;;;19.08;10.90;;;20.60;75.80;;;;;;4940193;28;20570;-73
2023/09/14 08:44:33;;;;;;;14.20;10.43;;;20.60;75.10;;;;;;4943820;28;20102;-75
2023/09/14 08:47:01;;;;;;;14.80;10.82;;;20.60;75.10;;;;;;4942317;28;20031;-73
2023/09/14 08:49:29;;;;;;;15.88;9.90;;;20.60;76.00;;;;;;4953305;28;20403;-72
2023/09/14 08:51:57;;;;;;;16.20;10.82;;;20.90;75.20;;;;;;4956985;28;20081;-75
2023/09/14 08:54:23;;;;;;;12.57;9.02;;;21.10;75.10;;;;;;4947865;28;20490;-73
2023/09/14 08:56:51;;;;;;;14.60;10.80;;;21.40;75.30;;;;;;4947828;28;20109;-74
2023/09/14 08:59:20;;;;;;;13.05;9.75;;;21.60;74.00;;;;;;4961114;28;20035;-74
2023/09/14 09:01:50;;;;;;;12.50;9.00;;;21.70;72.80;;;;;;4963180;28;20115;-73
2023/09/14 09:04:16;;;;;;;11.57;8.68;;;21.70;72.80;;;;;;5023467;28;20091;-73
2023/09/14 09:06:42;;;;;;;10.82;7.70;;;21.80;72.40;;;;;;5039458;28;20040;-72
2023/09/14 09:09:10;;;;;;;13.57;8.80;;;21.80;70.60;;;;;;4966807;28;20042;-73
2023/09/14 09:11:37;;;;;;;11.98;6.47;;;21.80;72.00;;;;;;4936629;28;20031;-73
2023/09/14 09:14:03;;;;;;;10.18;7.03;;;21.90;71.30;;;;;;4952141;28;20035;-73
2023/09/14 09:16:31;;;;;;;11.07;7.10;;;22.10;69.90;;;;;;4953898;28;20027;-73
2023/09/14 09:19:10;;;;;;;11.40;6.97;;;22.20;69.20;;;;;;4960738;28;20057;-73
2023/09/14 09:21:37;;;;;;;10.52;6.03;;;22.50;68.70;;;;;;4965056;28;20030;-73
2023/09/14 09:24:07;;;;;;;10.38;6.53;;;22.60;69.30;;;;;;4962384;28;20043;-74
2023/09/14 09:26:37;;;;;;;9.27;6.32;;;22.80;67.90;;;;;;4968531;28;20109;-76
2023/09/14 09:29:22;;;;;;;10.68;6.95;;;22.80;67.70;;;;;;4959715;28;20060;-74
2023/09/14 09:31:53;;;;;;;9.65;6.00;;;22.90;66.60;;;;;;4959567;28;20024;-75
2023/09/14 09:34:28;;;;;;;13.82;6.53;;;23.00;67.30;;;;;;4940487;28;20035;-77
2023/09/14 09:36:55;;;;;;;8.60;5.25;;;23.10;66.80;;;;;;4968005;28;20027;-75
2023/09/14 09:39:21;;;;;;;9.27;5.57;;;23.10;66.30;;;;;;4958087;28;20787;-76
2023/09/14 09:41:46;;;;;;;10.85;6.20;;;23.30;65.90;;;;;;4960413;28;20057;-74
2023/09/14 09:44:16;;;;;;;9.98;6.55;;;23.50;65.20;;;;;;4960754;28;20066;-75
2023/09/14 09:46:42;;;;;;;10.20;6.68;;;23.40;64.10;;;;;;4960202;28;20046;-74
2023/09/14 09:49:18;;;;;;;9.65;5.88;;;23.30;65.40;;;;;;4959152;28;20093;-76
2023/09/14 09:51:51;;;;;;;9.07;5.03;;;23.50;65.20;;;;;;4960411;28;20031;-74
2023/09/14 09:54:21;;;;;;;9.55;4.70;;;23.60;62.70;;;;;;4945751;28;20032;-74
2023/09/14 09:56:48;;;;;;;7.25;4.30;;;23.50;63.30;;;;;;4940247;28;20518;-73
2023/09/14 09:59:15;;;;;;;8.30;5.03;;;23.40;64.40;;;;;;4944580;28;20047;-75
2023/09/14 10:01:43;;;;;;;8.20;5.40;;;23.50;64.70;;;;;;4944081;28;20046;-74
2023/09/14 10:04:14;;;;;;;7.97;4.88;;;23.40;63.40;;;;;;4953079;28;20398;-77
2023/09/14 10:06:41;;;;;;;8.40;4.68;;;23.60;64.40;;;;;;4948115;28;20035;-73
2023/09/14 10:09:09;;;;;;;7.28;4.18;;;23.60;63.00;;;;;;4951121;28;20043;-76
2023/09/14 10:11:35;;;;;;;7.75;4.38;;;23.70;62.90;;;;;;4956458;28;20051;-76
2023/09/14 10:14:03;;;;;;;8.88;4.55;;;23.90;63.30;;;;;;4952791;28;20064;-78
2023/09/14 10:16:35;;;;;;;9.25;5.10;;;23.80;63.50;;;;;;4947929;28;20019;-74
2023/09/14 10:19:02;;;;;;;9.48;5.20;;;24.00;61.00;;;;;;4942423;28;20055;-77
2023/09/14 10:21:29;;;;;;;9.70;5.55;;;23.80;61.20;;;;;;4940777;28;20034;-73
2023/09/14 10:23:55;;;;;;;9.95;6.03;;;23.90;62.40;;;;;;4951964;28;20050;-77
2023/09/14 10:26:20;;;;;;;11.43;5.43;;;23.90;61.00;;;;;;4961560;28;20043;-75
2023/09/14 10:28:46;;;;;;;10.27;5.68;;;23.90;61.10;;;;;;4960448;28;20100;-73
2023/09/14 10:31:13;;;;;;;8.90;4.78;;;24.00;61.10;;;;;;4958947;28;20034;-75
2023/09/14 10:33:45;;;;;;;7.53;4.75;;;24.10;60.60;;;;;;4958111;28;20039;-75
2023/09/14 10:36:12;;;;;;;8.80;4.38;;;24.10;60.50;;;;;;4957269;28;20046;-75
2023/09/14 10:38:45;;;;;;;8.48;4.53;;;24.20;60.30;;;;;;4959054;28;21627;-76
2023/09/14 10:41:11;;;;;;;7.03;4.50;;;24.20;60.70;;;;;;4954967;28;20022;-75
2023/09/14 10:43:39;;;;;;;8.98;4.80;;;24.40;60.50;;;;;;4953341;28;20058;-76
2023/09/14 10:46:10;;;;;;;7.07;4.00;;;24.60;60.40;;;;;;4958746;28;20035;-74
2023/09/14 10:48:37;;;;;;;9.77;4.22;;;24.50;59.20;;;;;;4939252;28;20457;-74
2023/09/14 10:51:03;;;;;;;8.25;4.10;;;24.60;60.80;;;;;;4933268;28;20062;-76
2023/09/14 10:53:29;;;;;;;9.30;4.32;;;24.60;59.60;;;;;;4949050;28;20035;-74
2023/09/14 10:55:55;;;;;;;6.57;3.58;;;24.80;59.30;;;;;;4952540;28;20022;-75
2023/09/14 10:58:21;;;;;;;7.97;4.20;;;24.80;58.90;;;;;;4956311;28;20761;-75
2023/09/14 11:00:57;;;;;;;7.60;3.70;;;24.90;59.60;;;;;;4956801;28;20100;-75
2023/09/14 11:03:23;;;;;;;9.07;4.07;;;25.00;58.00;;;;;;4938849;28;20089;-76
2023/09/14 11:05:51;;;;;;;6.90;3.15;;;25.00;57.30;;;;;;4938145;28;20107;-76
2023/09/14 11:08:19;;;;;;;9.05;3.10;;;25.10;58.20;;;;;;4939021;28;20485;-74
2023/09/14 11:10:55;;;;;;;7.43;3.53;;;25.10;58.00;;;;;;4955229;28;20027;-76
2023/09/14 11:13:24;;;;;;;7.25;3.80;;;25.20;56.90;;;;;;4954502;28;20043;-76
2023/09/14 11:16:10;;;;;;;6.30;3.53;;;25.10;58.30;;;;;;4955488;28;20038;-77
2023/09/14 11:18:42;;;;;;;7.30;3.20;;;25.40;57.50;;;;;;4938353;28;20035;-77
2023/09/14 11:21:34;;;;;;;7.97;3.08;;;25.50;57.50;;;;;;4941993;28;20084;-75
2023/09/14 11:24:04;;;;;;;6.25;2.95;;;25.60;57.00;;;;;;4962374;28;20093;-77
2023/09/14 11:26:50;;;;;;;8.25;3.40;;;25.60;56.90;;;;;;4960701;28;20027;-76
2023/09/14 11:29:16;;;;;;;8.60;3.70;;;25.70;55.60;;;;;;4950885;28;20084;-75
2023/09/14 11:31:42;;;;;;;8.57;3.78;;;25.10;56.40;;;;;;4938819;28;20023;-75
2023/09/14 11:34:14;;;;;;;7.32;3.80;;;24.70;58.40;;;;;;4951549;28;20095;-74
2023/09/14 11:36:40;;;;;;;7.55;3.50;;;24.80;58.10;;;;;;4958098;28;20034;-76
2023/09/14 11:39:11;;;;;;;7.22;3.40;;;24.80;59.00;;;;;;4957428;28;20050;-74
2023/09/14 11:41:49;;;;;;;6.72;3.00;;;24.90;57.40;;;;;;4959721;28;20022;-73
2023/09/14 11:44:15;;;;;;;6.38;3.20;;;25.00;57.70;;;;;;4939808;28;20524;-74
2023/09/14 11:46:44;;;;;;;7.38;3.50;;;25.20;56.60;;;;;;4941617;28;20180;-74
2023/09/14 11:49:11;;;;;;;5.40;2.55;;;25.20;55.20;;;;;;4936317;28;20524;-75
2023/09/14 11:51:38;;;;;;;7.70;3.10;;;24.90;56.70;;;;;;4936948;28;20027;-75
2023/09/14 11:54:08;;;;;;;7.70;3.40;;;24.70;58.00;;;;;;4934093;28;20036;-76
2023/09/14 11:56:33;;;;;;;8.32;3.00;;;24.50;57.80;;;;;;4941162;28;20096;-75
2023/09/14 11:59:01;;;;;;;8.75;2.60;;;24.50;58.50;;;;;;4934065;28;20812;-74
2023/09/14 12:01:28;;;;;;;6.20;2.50;;;24.60;57.10;;;;;;4942135;28;20417;-75
2023/09/14 12:03:55;;;;;;;5.65;2.20;;;24.80;57.00;;;;;;4972353;28;20048;-76
2023/09/14 12:06:32;;;;;;;6.57;2.58;;;24.70;58.40;;;;;;4960376;28;20034;-75
2023/09/14 12:09:03;;;;;;;5.93;2.70;;;24.90;57.10;;;;;;4942424;28;20070;-75
2023/09/14 12:11:42;;;;;;;6.13;2.70;;;25.20;56.10;;;;;;4940597;28;20027;-74
2023/09/14 12:14:08;;;;;;;6.60;2.60;;;25.30;55.80;;;;;;4966015;28;20444;-73
2023/09/14 12:16:37;;;;;;;5.03;2.42;;;25.50;55.20;;;;;;4937985;28;20639;-74
2023/09/14 12:19:05;;;;;;;6.78;2.42;;;25.60;53.90;;;;;;5047455;28;20044;-75
2023/09/14 12:21:31;;;;;;;7.43;3.20;;;25.60;54.80;;;;;;4986911;28;20027;-74
2023/09/14 12:23:59;;;;;;;8.07;3.33;;;25.50;56.70;;;;;;4973219;28;20060;-78
2023/09/14 12:26:25;;;;;;;7.10;2.70;;;25.50;55.50;;;;;;4968111;28;20061;-77
2023/09/14 12:28:58;;;;;;;6.13;3.17;;;25.70;57.00;;;;;;4984652;28;20363;-75
2023/09/14 12:31:25;;;;;;;8.38;3.30;;;25.40;54.20;;;;;;4982072;28;20023;-74
2023/09/14 12:33:52;;;;;;;6.50;2.88;;;25.30;55.50;;;;;;4965530;28;20046;-75
2023/09/14 12:36:18;;;;;;;7.75;3.50;;;25.20;56.70;;;;;;4956754;28;20506;-75